Time;durP1;ratioP1;P1;durP2;ratioP2;P2;SDS_P1;SDS_P2;PMS_P1;PMS_P2;Temp;Humidity;BMP_temperature;BMP_pressure;BME280_temperature;BME280_humidity;BME280_pressure;Samples;Min_cycle;Max_cycle;Signal;HPM_P1;HPM_P2
2022/01/12 00:01:16;;;;;;;10.37;4.67;;;;;;;-141.29;100.00;58932.97;5078857;28;20450;-74
2022/01/12 00:03:45;;;;;;;11.90;4.83;;;;;;;-141.29;100.00;58932.97;5078324;28;20825;-76
2022/01/12 00:06:13;;;;;;;8.97;4.57;;;;;;;-141.29;100.00;58932.97;5078129;28;20495;-77
2022/01/12 00:08:40;;;;;;;7.10;4.40;;;;;;;-141.29;100.00;58932.97;5078731;28;20434;-74
2022/01/12 00:11:09;;;;;;;9.30;4.73;;;;;;;-141.29;100.00;58932.97;5078120;28;21026;-73
2022/01/12 00:13:41;;;;;;;8.73;4.72;;;;;;;-141.29;100.00;58932.97;5078639;28;20874;-75
2022/01/12 00:16:08;;;;;;;10.07;4.47;;;;;;;-141.29;100.00;58932.97;5076918;28;20706;-73
2022/01/12 00:18:36;;;;;;;9.97;5.10;;;;;;;-141.29;100.00;58932.97;5078347;28;20435;-75
2022/01/12 00:21:05;;;;;;;8.93;4.60;;;;;;;-141.29;100.00;58932.97;5078032;28;20496;-75
2022/01/12 00:23:34;;;;;;;12.93;5.18;;;;;;;-141.29;100.00;58932.97;5078091;28;20442;-75
2022/01/12 00:26:07;;;;;;;9.30;4.30;;;;;;;-141.29;100.00;58932.97;5078625;28;20670;-73
2022/01/12 00:34:15;;;;;;;10.30;4.83;;;;;;;-141.29;100.00;58932.97;5083665;28;20612;-75
2022/01/12 00:36:42;;;;;;;9.47;4.60;;;;;;;-141.29;100.00;58932.97;5079585;28;20901;-74
2022/01/12 00:39:09;;;;;;;9.13;4.50;;;;;;;-141.29;100.00;58932.97;5078405;28;20795;-74
2022/01/12 00:41:38;;;;;;;8.47;4.60;;;;;;;-141.29;100.00;58932.97;5078588;28;20496;-73
2022/01/12 00:44:09;;;;;;;12.27;4.60;;;;;;;-141.29;100.00;58932.97;5078539;28;20766;-73
2022/01/12 00:46:37;;;;;;;9.57;4.30;;;;;;;-141.29;100.00;58932.97;5077914;28;20945;-75
2022/01/12 00:49:07;;;;;;;10.67;4.40;;;;;;;-141.29;100.00;58932.97;5076930;28;20476;-74
2022/01/12 00:51:36;;;;;;;9.20;4.67;;;;;;;-141.29;100.00;58932.97;5077740;28;20497;-74
2022/01/12 00:54:08;;;;;;;9.10;4.38;;;;;;;-141.29;100.00;58932.97;5077710;28;20438;-75
2022/01/12 00:56:41;;;;;;;10.00;5.03;;;;;;;-141.29;100.00;58932.97;5077852;28;20571;-75
2022/01/12 00:59:10;;;;;;;9.57;4.67;;;;;;;-141.29;100.00;58932.97;5078221;28;20443;-74
2022/01/12 01:01:39;;;;;;;7.97;4.00;;;;;;;-141.29;100.00;58932.97;5077898;28;20840;-74
2022/01/12 01:04:11;;;;;;;9.87;4.47;;;;;;;-141.29;100.00;58932.97;5077687;28;20882;-75
2022/01/12 01:06:40;;;;;;;10.27;4.87;;;;;;;-141.29;100.00;58932.97;5077948;28;21021;-74
2022/01/12 01:09:09;;;;;;;11.23;4.73;;;;;;;-141.29;100.00;58932.97;5075151;28;20952;-74
2022/01/12 01:11:37;;;;;;;10.13;4.77;;;;;;;-141.29;100.00;58932.97;5074623;28;20482;-74
2022/01/12 01:14:14;;;;;;;10.50;5.53;;;;;;;-141.29;100.00;58932.97;5074606;28;20435;-74
2022/01/12 01:16:54;;;;;;;10.07;5.10;;;;;;;-141.29;100.00;58932.97;5074474;28;21033;-75
2022/01/12 01:25:31;;;;;;;11.43;5.43;;;;;;;-141.29;100.00;58932.97;4978182;28;20443;-75
2022/01/12 01:28:00;;;;;;;10.77;4.93;;;;;;;-141.29;100.00;58932.97;5063736;28;20447;-73
2022/01/12 01:30:30;;;;;;;12.20;6.43;;;;;;;-141.29;100.00;58932.97;5074470;28;20818;-74
2022/01/12 01:33:10;;;;;;;11.60;5.70;;;;;;;-141.29;100.00;58932.97;5074147;28;20478;-76
2022/01/12 01:35:46;;;;;;;8.00;4.17;;;;;;;-141.29;100.00;58932.97;5074344;28;20525;-74
2022/01/12 01:38:14;;;;;;;9.57;4.70;;;;;;;-141.29;100.00;58932.97;5074165;28;20434;-74
2022/01/12 01:40:56;;;;;;;9.50;4.93;;;;;;;-141.29;100.00;58932.97;5074217;28;20439;-77
2022/01/12 01:43:42;;;;;;;9.73;4.43;;;;;;;-141.29;100.00;58932.97;5074609;28;20450;-75
2022/01/12 01:54:33;;;;;;;10.57;4.83;;;;;;;-141.29;100.00;58932.97;5073836;28;20437;-76
2022/01/12 01:57:01;;;;;;;10.87;4.93;;;;;;;-141.29;100.00;58932.97;5074206;28;20442;-73
2022/01/12 01:59:31;;;;;;;8.77;4.38;;;;;;;-141.29;100.00;58932.97;5074394;28;20439;-73
2022/01/12 02:02:16;;;;;;;8.00;4.40;;;;;;;-141.29;100.00;58932.97;5074006;28;20204;-74
2022/01/12 02:04:49;;;;;;;8.63;3.90;;;;;;;-141.29;100.00;58932.97;5073975;28;20835;-75
2022/01/12 02:07:16;;;;;;;9.07;4.60;;;;;;;-141.29;100.00;58932.97;5074595;28;20231;-73
2022/01/12 02:09:44;;;;;;;7.85;4.35;;;;;;;-141.29;100.00;58932.97;5071776;28;20957;-74
2022/01/12 02:12:13;;;;;;;7.20;3.80;;;;;;;-141.29;100.00;58932.97;5074035;28;20224;-75
2022/01/12 02:17:25;;;;;;;7.47;4.50;;;;;;;-141.29;100.00;58932.97;5073872;28;20211;-74
2022/01/12 02:20:12;;;;;;;6.75;3.92;;;;;;;-141.29;100.00;58932.97;5073217;28;20457;-75
2022/01/12 02:36:58;;;;;;;9.10;4.95;;;;;;;-141.29;100.00;58932.97;5073473;28;20270;-75
2022/01/12 02:42:27;;;;;;;9.60;4.25;;;;;;;-141.29;100.00;58932.97;5031403;28;20225;-73
2022/01/12 02:56:08;;;;;;;8.20;4.40;;;;;;;-141.29;100.00;58932.97;5073312;28;20251;-76
2022/01/12 02:58:36;;;;;;;7.80;4.20;;;;;;;-141.29;100.00;58932.97;5073305;28;20200;-76
2022/01/12 03:03:49;;;;;;;7.32;4.20;;;;;;;-141.29;100.00;58932.97;5028250;28;20207;-74
2022/01/12 03:06:19;;;;;;;6.63;4.13;;;;;;;-141.29;100.00;58932.97;5072248;28;20278;-74
2022/01/12 03:08:48;;;;;;;9.30;4.35;;;;;;;-141.29;100.00;58932.97;5072216;28;20203;-74
2022/01/12 03:11:19;;;;;;;8.20;4.27;;;;;;;-141.29;100.00;58932.97;5072955;28;20207;-73
2022/01/12 03:13:47;;;;;;;10.47;4.30;;;;;;;-141.29;100.00;58932.97;5072716;28;20509;-73
2022/01/12 03:16:18;;;;;;;11.87;4.80;;;;;;;-141.29;100.00;58932.97;5072147;28;20496;-75
2022/01/12 03:18:48;;;;;;;8.48;4.18;;;;;;;-141.29;100.00;58932.97;5072504;28;20435;-74
2022/01/12 03:21:19;;;;;;;6.55;3.47;;;;;;;-141.29;100.00;58932.97;5072098;28;20196;-75
2022/01/12 03:23:48;;;;;;;7.80;4.03;;;;;;;-141.29;100.00;58932.97;5072057;28;20211;-73
2022/01/12 03:26:18;;;;;;;8.63;3.75;;;;;;;-141.29;100.00;58932.97;5072328;28;20211;-73
2022/01/12 03:28:52;;;;;;;7.17;3.53;;;;;;;-141.29;100.00;58932.97;5072013;28;20204;-73
2022/01/12 03:31:23;;;;;;;8.13;4.03;;;;;;;-141.29;100.00;58932.97;5071605;28;20519;-74
2022/01/12 03:33:56;;;;;;;8.95;4.05;;;;;;;-141.29;100.00;58932.97;5072453;28;20234;-73
2022/01/12 04:10:13;;;;;;;8.37;4.33;;;;;;;-141.29;100.00;58932.97;5071735;28;20430;-73
2022/01/12 04:12:43;;;;;;;8.77;4.00;;;;;;;-141.29;100.00;58932.97;5071456;28;21000;-75
2022/01/12 04:15:10;;;;;;;7.32;3.88;;;;;;;-141.29;100.00;58932.97;5071658;28;20228;-74
2022/01/12 04:17:38;;;;;;;8.65;3.95;;;;;;;-141.29;100.00;58932.97;5072030;28;20291;-73
2022/01/12 04:20:15;;;;;;;8.27;4.57;;;;;;;-141.29;100.00;58932.97;5071547;28;20273;-75
2022/01/12 04:25:32;;;;;;;7.93;4.80;;;;;;;-141.29;100.00;58932.97;5072467;28;20317;-73
2022/01/12 04:28:01;;;;;;;9.27;4.70;;;;;;;-141.29;100.00;58932.97;5072112;28;20453;-74
2022/01/12 04:30:27;;;;;;;9.20;4.30;;;;;;;-141.29;100.00;58932.97;5071589;28;20205;-74
2022/01/12 04:32:54;;;;;;;9.27;4.77;;;;;;;-141.29;100.00;58932.97;5070972;28;20285;-74
2022/01/12 04:35:25;;;;;;;9.50;4.30;;;;;;;-141.29;100.00;58932.97;5071794;28;20819;-75
2022/01/12 04:37:55;;;;;;;9.90;5.00;;;;;;;-141.29;100.00;58932.97;5071183;28;20483;-74
2022/01/12 04:40:23;;;;;;;9.03;4.80;;;;;;;-141.29;100.00;58932.97;5071003;28;20450;-75
2022/01/12 04:42:54;;;;;;;11.57;5.17;;;;;;;-141.29;100.00;58932.97;5071090;28;20449;-74
2022/01/12 04:45:36;;;;;;;8.83;4.60;;;;;;;-141.29;100.00;58932.97;5076014;28;20434;-74
2022/01/12 04:48:20;;;;;;;10.13;4.90;;;;;;;-141.29;100.00;58932.97;5074193;28;20462;-72
2022/01/12 04:50:51;;;;;;;12.63;4.90;;;;;;;-141.29;100.00;58932.97;5075039;28;20240;-74
2022/01/12 04:53:25;;;;;;;11.38;4.65;;;;;;;-141.29;100.00;58932.97;5075255;28;20540;-77
2022/01/12 04:55:52;;;;;;;9.17;4.40;;;;;;;-141.29;100.00;58932.97;5075488;28;20200;-74
2022/01/12 04:58:22;;;;;;;12.55;5.50;;;;;;;-141.29;100.00;58932.97;5081636;28;20877;-76
2022/01/12 05:00:52;;;;;;;10.45;4.88;;;;;;;-141.29;100.00;58932.97;5075126;28;20630;-75
2022/01/12 05:09:28;;;;;;;9.97;4.93;;;;;;;-141.29;100.00;58932.97;5074017;28;20211;-74
2022/01/12 05:14:47;;;;;;;9.20;4.50;;;;;;;-141.29;100.00;58932.97;5075181;28;20253;-75
2022/01/12 05:17:14;;;;;;;8.27;4.75;;;;;;;-141.29;100.00;58932.97;5074681;28;20725;-75
2022/01/12 05:19:45;;;;;;;9.20;4.55;;;;;;;-141.29;100.00;58932.97;5074819;28;20293;-74
2022/01/12 05:22:12;;;;;;;11.15;5.30;;;;;;;-141.29;100.00;58932.97;5074603;28;20205;-74
2022/01/12 05:24:42;;;;;;;12.57;6.07;;;;;;;-141.29;100.00;58932.97;5074499;28;20196;-73
2022/01/12 05:27:10;;;;;;;9.25;4.50;;;;;;;-141.29;100.00;58932.97;5074202;28;21011;-74
2022/01/12 05:29:38;;;;;;;11.57;5.57;;;;;;;-141.29;100.00;58932.97;5074298;28;20207;-73
2022/01/12 05:32:10;;;;;;;8.38;4.03;;;;;;;-141.29;100.00;58932.97;5074340;28;20240;-75
2022/01/12 05:34:41;;;;;;;10.45;5.80;;;;;;;-141.29;100.00;58932.97;5073760;28;20714;-75
2022/01/12 05:37:10;;;;;;;16.30;6.45;;;;;;;-141.29;100.00;58932.97;5074005;28;20207;-75
2022/01/12 05:39:38;;;;;;;19.00;6.93;;;;;;;-141.29;100.00;58932.97;5074490;28;20196;-75
2022/01/12 05:42:09;;;;;;;37.25;10.00;;;;;;;-141.29;100.00;58932.97;5074122;28;20287;-74
2022/01/12 05:44:42;;;;;;;46.13;10.95;;;;;;;-141.29;100.00;58932.97;5074119;28;20196;-73
2022/01/12 05:47:18;;;;;;;37.00;10.52;;;;;;;-141.29;100.00;58932.97;5074319;28;20200;-74
2022/01/12 05:49:45;;;;;;;39.05;11.55;;;;;;;-141.29;100.00;58932.97;5073975;28;20236;-76
2022/01/12 05:54:59;;;;;;;24.13;10.65;;;;;;;-141.29;100.00;58932.97;5072747;28;20211;-73
2022/01/12 05:57:30;;;;;;;18.70;7.83;;;;;;;-141.29;100.00;58932.97;5073203;28;20655;-76
2022/01/12 05:59:58;;;;;;;13.95;6.57;;;;;;;-141.29;100.00;58932.97;5073483;28;20457;-75
2022/01/12 06:02:26;;;;;;;13.97;6.90;;;;;;;-141.29;100.00;58932.97;5073982;28;20200;-74
2022/01/12 06:04:53;;;;;;;12.00;5.63;;;;;;;-141.29;100.00;58932.97;5073394;28;20462;-73
2022/01/12 06:07:21;;;;;;;9.88;5.55;;;;;;;-141.29;100.00;58932.97;5073564;28;20443;-74
2022/01/12 06:09:49;;;;;;;12.25;5.53;;;;;;;-141.29;100.00;58932.97;5073498;28;20255;-73
2022/01/12 06:12:17;;;;;;;9.50;4.97;;;;;;;-141.29;100.00;58932.97;5073444;28;20196;-74
2022/01/12 06:14:48;;;;;;;8.63;4.65;;;;;;;-141.29;100.00;58932.97;5074134;28;20260;-73
2022/01/12 06:17:15;;;;;;;10.00;5.10;;;;;;;-141.29;100.00;58932.97;5073463;28;20258;-73
2022/01/12 06:19:43;;;;;;;10.23;5.10;;;;;;;-141.29;100.00;58932.97;5072904;28;20505;-73
2022/01/12 06:22:16;;;;;;;11.52;5.60;;;;;;;-141.29;100.00;58932.97;5073242;28;20275;-75
2022/01/12 06:24:46;;;;;;;15.40;6.38;;;;;;;-141.29;100.00;58932.97;5073183;28;20200;-74
2022/01/12 06:27:16;;;;;;;18.75;7.72;;;;;;;-141.29;100.00;58932.97;5072923;28;20739;-74
2022/01/12 06:29:50;;;;;;;13.77;6.23;;;;;;;-141.29;100.00;58932.97;5074021;28;20556;-75
2022/01/12 06:32:19;;;;;;;26.77;9.17;;;;;;;-141.29;100.00;58932.97;5071927;28;20446;-76
2022/01/12 06:34:46;;;;;;;32.47;11.32;;;;;;;-141.29;100.00;58932.97;5072624;28;20574;-74
2022/01/12 06:37:13;;;;;;;18.10;8.02;;;;;;;-141.29;100.00;58932.97;5072753;28;20192;-74
2022/01/12 06:39:40;;;;;;;24.42;8.25;;;;;;;-141.29;100.00;58932.97;5072446;28;20201;-74
2022/01/12 06:42:08;;;;;;;19.47;8.30;;;;;;;-141.29;100.00;58932.97;5073262;28;20192;-74
2022/01/12 06:44:36;;;;;;;17.70;7.28;;;;;;;-141.29;100.00;58932.97;5072138;28;20953;-75
2022/01/12 06:47:04;;;;;;;14.48;6.68;;;;;;;-141.29;100.00;58932.97;5072951;28;20200;-74
2022/01/12 06:49:35;;;;;;;13.57;6.88;;;;;;;-141.29;100.00;58932.97;5072838;28;20331;-75
2022/01/12 06:52:02;;;;;;;14.93;6.18;;;;;;;-141.29;100.00;58932.97;5073637;28;20625;-74
2022/01/12 06:54:32;;;;;;;12.13;6.28;;;;;;;-141.29;100.00;58932.97;5072793;28;20277;-75
2022/01/12 06:57:04;;;;;;;11.33;6.23;;;;;;;-141.29;100.00;58932.97;5072716;28;20667;-76
2022/01/12 06:59:32;;;;;;;15.43;7.60;;;;;;;-141.29;100.00;58932.97;5072501;28;20465;-75
2022/01/12 07:02:01;;;;;;;10.43;6.17;;;;;;;-141.29;100.00;58932.97;5072376;28;20542;-75
2022/01/12 07:04:28;;;;;;;9.82;5.30;;;;;;;-141.29;100.00;58932.97;5072884;28;20454;-75
2022/01/12 07:06:58;;;;;;;11.30;5.70;;;;;;;-141.29;100.00;58932.97;5079799;28;20212;-73
2022/01/12 07:09:26;;;;;;;17.23;5.68;;;;;;;-141.29;100.00;58932.97;5073864;28;20524;-75
2022/01/12 07:12:12;;;;;;;13.00;5.37;;;;;;;-141.29;100.00;58932.97;5072407;28;20546;-74
2022/01/12 07:14:39;;;;;;;10.88;5.75;;;;;;;-141.29;100.00;58932.97;5072417;28;20524;-77
2022/01/12 07:17:13;;;;;;;9.30;5.05;;;;;;;-141.29;100.00;58932.97;5073308;28;20547;-76
2022/01/12 07:19:46;;;;;;;10.70;4.72;;;;;;;-141.29;100.00;58932.97;5072187;28;20207;-75
2022/01/12 07:22:25;;;;;;;17.60;6.07;;;;;;;-141.29;100.00;58932.97;5072198;28;20200;-74
2022/01/12 07:24:52;;;;;;;9.13;4.57;;;;;;;-141.29;100.00;58932.97;5072195;28;20929;-75
2022/01/12 07:27:21;;;;;;;12.03;5.83;;;;;;;-141.29;100.00;58932.97;5071549;28;20508;-75
2022/01/12 07:29:49;;;;;;;12.60;6.77;;;;;;;-141.29;100.00;58932.97;5072230;28;20858;-74
2022/01/12 07:32:19;;;;;;;11.57;6.20;;;;;;;-141.29;100.00;58932.97;5071883;28;20443;-76
2022/01/12 07:34:50;;;;;;;11.27;5.30;;;;;;;-141.29;100.00;58932.97;5074235;28;20297;-74
2022/01/12 07:37:23;;;;;;;17.13;7.25;;;;;;;-141.29;100.00;58932.97;5073594;28;20507;-75
2022/01/12 07:39:50;;;;;;;11.83;5.03;;;;;;;-141.29;100.00;58932.97;5070735;28;20258;-74
2022/01/12 07:42:20;;;;;;;12.57;5.70;;;;;;;-141.29;100.00;58932.97;5072121;28;20438;-77
2022/01/12 07:44:48;;;;;;;12.33;5.53;;;;;;;-141.29;100.00;58932.97;5071401;28;20980;-74
2022/01/12 07:47:18;;;;;;;12.77;6.40;;;;;;;-141.29;100.00;58932.97;5071681;28;20443;-75
2022/01/12 07:49:49;;;;;;;15.33;6.90;;;;;;;-141.29;100.00;58932.97;5071680;28;20471;-75
2022/01/12 07:52:39;;;;;;;9.60;4.87;;;;;;;-141.29;100.00;58932.97;5071645;28;20832;-73
2022/01/12 07:55:12;;;;;;;7.37;3.97;;;;;;;-141.29;100.00;58932.97;5072252;28;20872;-75
2022/01/12 07:57:42;;;;;;;9.73;4.73;;;;;;;-141.29;100.00;58932.97;5071552;28;20439;-75
2022/01/12 08:00:10;;;;;;;9.57;4.80;;;;;;;-141.29;100.00;58932.97;5071480;28;20538;-74
2022/01/12 08:02:39;;;;;;;6.23;4.10;;;;;;;-141.29;100.00;58932.97;5071086;28;20439;-75
2022/01/12 08:05:13;;;;;;;8.47;4.30;;;;;;;-141.29;100.00;58932.97;5071902;28;20981;-75
2022/01/12 08:07:48;;;;;;;8.33;4.20;;;;;;;-141.29;100.00;58932.97;5071526;28;20492;-75
2022/01/12 08:10:19;;;;;;;8.43;4.20;;;;;;;-141.29;100.00;58932.97;5071457;28;20549;-74
2022/01/12 08:12:50;;;;;;;9.67;3.63;;;;;;;-141.29;100.00;58932.97;5071548;28;20450;-74
2022/01/12 08:15:19;;;;;;;6.27;4.13;;;;;;;-141.29;100.00;58932.97;5072224;28;20841;-75
2022/01/12 08:17:46;;;;;;;13.50;6.03;;;;;;;-141.29;100.00;58932.97;5072502;28;21008;-74
2022/01/12 08:20:24;;;;;;;12.93;5.73;;;;;;;-141.29;100.00;58932.97;5074477;28;20930;-75
2022/01/12 08:22:56;;;;;;;14.80;6.97;;;;;;;-141.29;100.00;58932.97;5075464;28;20941;-77
2022/01/12 08:25:23;;;;;;;13.57;6.17;;;;;;;-141.29;100.00;58932.97;5075689;28;20443;-74
2022/01/12 08:27:59;;;;;;;16.30;7.17;;;;;;;-141.29;100.00;58932.97;5076003;28;20430;-74
2022/01/12 08:30:34;;;;;;;19.30;7.00;;;;;;;-141.29;100.00;58932.97;5075926;28;20438;-75
2022/01/12 08:33:07;;;;;;;14.37;6.47;;;;;;;-141.29;100.00;58932.97;5075859;28;20438;-74
2022/01/12 08:35:34;;;;;;;11.23;5.10;;;;;;;-141.29;100.00;58932.97;5074884;28;20838;-74
2022/01/12 08:38:05;;;;;;;8.20;4.13;;;;;;;-141.29;100.00;58932.97;5075059;28;20499;-73
2022/01/12 08:40:33;;;;;;;8.13;4.23;;;;;;;-141.29;100.00;58932.97;5075780;28;20445;-75
2022/01/12 08:43:01;;;;;;;7.50;3.87;;;;;;;-141.29;100.00;58932.97;5075071;28;20435;-74
2022/01/12 08:45:30;;;;;;;9.00;4.30;;;;;;;-141.29;100.00;58932.97;5074752;28;20478;-74
2022/01/12 08:47:59;;;;;;;5.80;3.17;;;;;;;-141.29;100.00;58932.97;5075117;28;20528;-75
2022/01/12 08:50:35;;;;;;;5.83;3.10;;;;;;;-141.29;100.00;58932.97;5074796;28;20896;-73
2022/01/12 08:53:02;;;;;;;7.43;4.17;;;;;;;-141.29;100.00;58932.97;5074718;28;20512;-74
2022/01/12 08:55:33;;;;;;;7.43;4.10;;;;;;;-141.29;100.00;58932.97;5074882;28;21012;-74
2022/01/12 08:58:04;;;;;;;7.50;4.37;;;;;;;-141.29;100.00;58932.97;5074887;28;20434;-76
2022/01/12 09:00:31;;;;;;;8.37;4.50;;;;;;;-141.29;100.00;58932.97;5074856;28;20496;-75
2022/01/12 09:03:02;;;;;;;7.60;3.63;;;;;;;-141.29;100.00;58932.97;5073758;28;20465;-76
2022/01/12 09:05:31;;;;;;;7.67;3.73;;;;;;;-141.29;100.00;58932.97;5075419;28;20446;-75
2022/01/12 09:10:46;;;;;;;9.33;4.20;;;;;;;-141.29;100.00;58932.97;5079390;28;20430;-73
2022/01/12 09:13:16;;;;;;;9.43;4.33;;;;;;;-141.29;100.00;58932.97;5076786;28;20442;-75
2022/01/12 09:15:44;;;;;;;8.40;3.73;;;;;;;-141.29;100.00;58932.97;5077428;28;20501;-76
2022/01/12 09:18:15;;;;;;;7.80;4.13;;;;;;;-141.29;100.00;58932.97;5080963;28;20498;-75
2022/01/12 09:20:42;;;;;;;13.97;5.00;;;;;;;-141.29;100.00;58932.97;5075613;28;20454;-75
2022/01/12 09:23:12;;;;;;;6.97;3.50;;;;;;;-141.29;100.00;58932.97;5074702;28;20438;-74
2022/01/12 09:25:41;;;;;;;9.03;4.20;;;;;;;-141.29;100.00;58932.97;5074629;28;20945;-73
2022/01/12 09:28:10;;;;;;;6.87;3.50;;;;;;;-141.29;100.00;58932.97;5074033;28;20793;-77
2022/01/12 09:30:38;;;;;;;5.67;3.03;;;;;;;-141.29;100.00;58932.97;5072707;28;20528;-76
2022/01/12 09:33:06;;;;;;;5.87;3.33;;;;;;;-141.29;100.00;58932.97;5074093;28;20942;-75
2022/01/12 09:35:35;;;;;;;5.43;3.30;;;;;;;-141.29;100.00;58932.97;5074009;28;20486;-77
2022/01/12 09:38:03;;;;;;;2.70;1.83;;;;;;;-141.29;100.00;58932.97;5074077;28;20435;-73
2022/01/12 09:40:30;;;;;;;5.93;3.17;;;;;;;-141.29;100.00;58932.97;5073988;28;20496;-74
2022/01/12 09:43:05;;;;;;;6.83;3.67;;;;;;;-141.29;100.00;58932.97;5073756;28;20442;-75
2022/01/12 09:45:33;;;;;;;7.67;3.87;;;;;;;-141.29;100.00;58932.97;5074774;28;20426;-76
2022/01/12 09:48:02;;;;;;;9.63;4.03;;;;;;;-141.29;100.00;58932.97;5073762;28;20462;-74
2022/01/12 09:50:38;;;;;;;5.50;2.87;;;;;;;-141.29;100.00;58932.97;5072333;28;20858;-74
2022/01/12 09:53:06;;;;;;;4.27;2.70;;;;;;;-141.29;100.00;58932.97;5073713;28;20449;-75
2022/01/12 09:55:33;;;;;;;8.23;3.27;;;;;;;-141.29;100.00;58932.97;5073558;28;20535;-74
2022/01/12 09:58:02;;;;;;;6.67;3.20;;;;;;;-141.29;100.00;58932.97;5074772;28;20438;-73
2022/01/12 10:00:33;;;;;;;5.87;3.20;;;;;;;-141.29;100.00;58932.97;5073924;28;20447;-75
2022/01/12 10:03:11;;;;;;;6.63;3.73;;;;;;;-141.29;100.00;58932.97;5073307;28;20965;-76
2022/01/12 10:05:38;;;;;;;5.93;3.20;;;;;;;-141.29;100.00;58932.97;5074381;28;20530;-74
2022/01/12 10:08:14;;;;;;;9.05;4.72;;;;;;;-141.29;100.00;58932.97;5075837;28;20450;-76
2022/01/12 10:11:01;;;;;;;10.43;3.70;;;;;;;-141.29;100.00;58932.97;5073758;28;20207;-74
2022/01/12 10:13:40;;;;;;;6.73;3.13;;;;;;;-141.29;100.00;58932.97;5073242;28;20443;-76
2022/01/12 10:16:15;;;;;;;7.60;2.90;;;;;;;-141.29;100.00;58932.97;5073176;28;20482;-74
2022/01/12 10:18:52;;;;;;;6.00;3.30;;;;;;;-141.29;100.00;58932.97;5072204;28;20443;-75
2022/01/12 10:21:40;;;;;;;7.77;4.03;;;;;;;-141.29;100.00;58932.97;5073187;28;20499;-74
2022/01/12 10:24:19;;;;;;;12.03;4.73;;;;;;;-141.29;100.00;58932.97;5073294;28;20439;-74
2022/01/12 10:26:51;;;;;;;7.63;4.07;;;;;;;-141.29;100.00;58932.97;5073157;28;20453;-75
2022/01/12 10:29:31;;;;;;;10.57;4.97;;;;;;;-141.29;100.00;58932.97;5073052;28;20492;-75
2022/01/12 10:32:02;;;;;;;9.67;4.37;;;;;;;-141.29;100.00;58932.97;5071705;28;20438;-78
2022/01/12 10:34:38;;;;;;;8.33;4.40;;;;;;;-141.29;100.00;58932.97;5072882;28;20491;-75
2022/01/12 10:37:09;;;;;;;4.73;2.93;;;;;;;-141.29;100.00;58932.97;5073886;28;20434;-75
2022/01/12 10:39:41;;;;;;;6.80;3.40;;;;;;;-141.29;100.00;58932.97;5073580;28;20854;-74
2022/01/12 10:42:12;;;;;;;4.93;2.87;;;;;;;-141.29;100.00;58932.97;5072376;28;20438;-75
2022/01/12 10:44:43;;;;;;;8.23;3.43;;;;;;;-141.29;100.00;58932.97;5072389;28;20447;-75
2022/01/12 10:47:17;;;;;;;5.70;2.90;;;;;;;-141.29;100.00;58932.97;5072379;28;20461;-74
2022/01/12 10:49:58;;;;;;;6.63;3.37;;;;;;;-141.29;100.00;58932.97;5072038;28;20481;-74
2022/01/12 10:52:27;;;;;;;6.30;3.37;;;;;;;-141.29;100.00;58932.97;5073406;28;20443;-73
2022/01/12 10:54:57;;;;;;;7.30;3.60;;;;;;;-141.29;100.00;58932.97;5072374;28;21066;-74
2022/01/12 10:57:28;;;;;;;4.40;2.83;;;;;;;-141.29;100.00;58932.97;5072437;28;20937;-75
2022/01/12 11:00:18;;;;;;;5.93;3.10;;;;;;;-141.29;100.00;58932.97;5071928;28;20525;-76
2022/01/12 11:02:50;;;;;;;8.33;3.63;;;;;;;-141.29;100.00;58932.97;5072462;28;20441;-74
2022/01/12 11:05:20;;;;;;;5.90;3.40;;;;;;;-141.29;100.00;58932.97;5072435;28;20458;-75
2022/01/12 11:07:49;;;;;;;7.63;4.03;;;;;;;-141.29;100.00;58932.97;5072630;28;20431;-75
2022/01/12 11:10:18;;;;;;;6.40;3.63;;;;;;;-141.29;100.00;58932.97;5072369;28;20493;-75
2022/01/12 11:12:47;;;;;;;8.37;3.80;;;;;;;-141.29;100.00;58932.97;5072426;28;20575;-75
2022/01/12 11:15:18;;;;;;;6.30;4.20;;;;;;;-141.29;100.00;58932.97;5078684;28;20585;-74
2022/01/12 11:17:47;;;;;;;5.70;2.93;;;;;;;-141.29;100.00;58932.97;5072594;28;20941;-75
2022/01/12 11:20:18;;;;;;;11.13;4.60;;;;;;;-141.29;100.00;58932.97;5071689;28;20464;-75
2022/01/12 11:23:11;;;;;;;10.57;4.90;;;;;;;-141.29;100.00;58932.97;5071393;28;20443;-75
2022/01/12 11:25:45;;;;;;;6.73;3.67;;;;;;;-141.29;100.00;58932.97;5070832;28;20443;-74
2022/01/12 11:31:04;;;;;;;15.93;5.97;;;;;;;-141.29;100.00;58932.97;5072072;28;20531;-74
2022/01/12 11:33:42;;;;;;;5.07;2.87;;;;;;;-141.29;100.00;58932.97;5071948;28;20450;-76
2022/01/12 11:36:16;;;;;;;6.30;2.80;;;;;;;-141.29;100.00;58932.97;5071881;28;20482;-76
2022/01/12 11:39:03;;;;;;;4.97;2.83;;;;;;;-141.29;100.00;58932.97;5072842;28;20446;-76
2022/01/12 11:47:09;;;;;;;6.03;2.93;;;;;;;-141.29;100.00;58932.97;5072315;28;20844;-75
2022/01/12 11:49:46;;;;;;;5.83;3.03;;;;;;;-141.29;100.00;58932.97;5071840;28;20486;-74
2022/01/12 11:52:29;;;;;;;6.40;3.40;;;;;;;-141.29;100.00;58932.97;5071065;28;20492;-75
2022/01/12 11:55:13;;;;;;;7.37;3.87;;;;;;;-141.29;100.00;58932.97;5071532;28;20486;-76
2022/01/12 11:57:59;;;;;;;6.37;3.93;;;;;;;-141.29;100.00;58932.97;5071989;28;20834;-75
2022/01/12 12:00:35;;;;;;;8.87;3.50;;;;;;;-141.29;100.00;58932.97;5071712;28;20446;-77
2022/01/12 12:03:15;;;;;;;11.67;4.30;;;;;;;-141.29;100.00;58932.97;5072478;28;20803;-76
2022/01/12 12:05:45;;;;;;;7.47;3.67;;;;;;;-141.29;100.00;58932.97;5071814;28;20442;-75
2022/01/12 12:08:12;;;;;;;7.67;3.37;;;;;;;-141.29;100.00;58932.97;5072434;28;20447;-74
2022/01/12 12:10:50;;;;;;;5.70;3.07;;;;;;;-141.29;100.00;58932.97;5070240;28;20460;-74
2022/01/12 12:16:08;;;;;;;6.77;3.93;;;;;;;-141.29;100.00;58932.97;5067901;28;20551;-73
2022/01/12 12:18:50;;;;;;;6.07;3.47;;;;;;;-141.29;100.00;58932.97;5071763;28;20458;-75
2022/01/12 12:24:08;;;;;;;7.13;3.30;;;;;;;-141.29;100.00;58932.97;5072240;28;20453;-75
2022/01/12 12:26:44;;;;;;;5.50;3.23;;;;;;;-141.29;100.00;58932.97;5071823;28;20808;-76
2022/01/12 12:29:13;;;;;;;5.90;3.23;;;;;;;-141.29;100.00;58932.97;5072073;28;20527;-76
2022/01/12 12:31:41;;;;;;;5.40;3.40;;;;;;;-141.29;100.00;58932.97;5070369;28;20435;-76
2022/01/12 12:34:18;;;;;;;6.40;3.53;;;;;;;-141.29;100.00;58932.97;5071457;28;20531;-76
2022/01/12 12:36:45;;;;;;;5.87;3.10;;;;;;;-141.29;100.00;58932.97;5071574;28;21025;-75
2022/01/12 12:39:16;;;;;;;4.63;3.20;;;;;;;-141.29;100.00;58932.97;5071502;28;20945;-74
2022/01/12 12:41:46;;;;;;;7.43;3.27;;;;;;;-141.29;100.00;58932.97;5071327;28;20438;-74
2022/01/12 12:44:23;;;;;;;5.27;3.20;;;;;;;-141.29;100.00;58932.97;5071465;28;20451;-73
2022/01/12 12:47:06;;;;;;;8.30;4.37;;;;;;;-141.29;100.00;58932.97;5071924;28;20796;-76
2022/01/12 12:49:46;;;;;;;6.97;4.23;;;;;;;-141.29;100.00;58932.97;5071010;28;20519;-75
2022/01/12 12:52:23;;;;;;;6.80;3.70;;;;;;;-141.29;100.00;58932.97;5071161;28;20496;-76
2022/01/12 12:54:52;;;;;;;8.77;4.23;;;;;;;-141.29;100.00;58932.97;5071253;28;20533;-75
2022/01/12 12:57:22;;;;;;;5.77;3.27;;;;;;;-141.29;100.00;58932.97;5071097;28;20492;-76
2022/01/12 12:59:51;;;;;;;4.33;2.60;;;;;;;-141.29;100.00;58932.97;5069969;28;20489;-76
2022/01/12 13:02:21;;;;;;;6.10;3.47;;;;;;;-141.29;100.00;58932.97;5070024;28;20442;-77
2022/01/12 13:04:53;;;;;;;7.30;3.17;;;;;;;-141.29;100.00;58932.97;5073216;28;20450;-74
2022/01/12 13:07:26;;;;;;;7.03;4.03;;;;;;;-141.29;100.00;58932.97;5074897;28;20864;-74
2022/01/12 13:10:05;;;;;;;6.30;3.77;;;;;;;-141.29;100.00;58932.97;5074905;28;20434;-74
2022/01/12 13:12:37;;;;;;;6.20;3.63;;;;;;;-141.29;100.00;58932.97;5074561;28;20527;-76
2022/01/12 13:15:10;;;;;;;8.43;3.80;;;;;;;-141.29;100.00;58932.97;5073163;28;20552;-73
2022/01/12 13:17:40;;;;;;;6.93;4.20;;;;;;;-141.29;100.00;58932.97;5074689;28;20833;-76
2022/01/12 13:23:06;;;;;;;5.43;3.30;;;;;;;-141.29;100.00;58932.97;5081553;28;20429;-74
2022/01/12 13:25:38;;;;;;;5.37;3.47;;;;;;;-141.29;100.00;58932.97;5074622;28;20462;-73
2022/01/12 13:28:07;;;;;;;8.97;4.13;;;;;;;-141.29;100.00;58932.97;5074113;28;20898;-77